Terminal Aerodrome Forecast
Issued by NWS Charleston, WV

Current Version | Previous Version | Graphics & Text | Print | Product List | Glossary On
Versions: 1 2 3 4 5 6 7 8 9 10 11 12 13 14 15 16 17 18 19 20 21 22 23 24 25 26 27 28
000
FTUS41 KRLX 010300 AAA
TAFBKW
TAF AMD
KBKW 010326Z 0103/0124 13008KT P6SM SKC
     FM011200 14004KT 5SM -FZRA BR OVC040
     FM011400 16007KT 4SM -FZRA BR OVC015
     FM011500 16008KT 3SM -RA BR OVC008
     FM011900 19005KT 2SM BR OVC006=

USA.gov is the U.S. government's official web portal to all federal, state and local government web resources and services.